Time;durP1;ratioP1;P1;durP2;ratioP2;P2;SDS_P1;SDS_P2;PMS_P1;PMS_P2;Temp;Humidity;BMP_temperature;BMP_pressure;BME280_temperature;BME280_humidity;BME280_pressure;Samples;Min_cycle;Max_cycle;Signal;HPM_P1;HPM_P2
2023/05/29 00:00:22;;;;;;;9.23;4.30;;;16.10;99.90;;;16.33;69.22;94758.63;5070946;28;20520;-68
2023/05/29 00:02:51;;;;;;;4.30;3.40;;;16.10;99.90;;;16.31;69.31;94763.28;5075028;28;20458;-69
2023/05/29 00:05:19;;;;;;;4.60;4.20;;;16.10;99.90;;;16.29;69.54;94770.59;5074970;28;20467;-69
2023/05/29 00:07:46;;;;;;;10.17;4.30;;;16.10;99.90;;;16.28;69.46;94771.59;5074749;28;20466;-55
2023/05/29 00:10:15;;;;;;;11.90;4.73;;;16.10;99.90;;;16.25;69.76;94761.34;5071707;28;20485;-57
2023/05/29 00:12:42;;;;;;;3.20;3.00;;;16.00;99.90;;;16.24;69.65;94765.81;5070139;28;20951;-56
2023/05/29 00:15:12;;;;;;;6.03;3.47;;;16.00;99.90;;;16.22;69.97;94762.53;5069540;28;20479;-69
2023/05/29 00:17:40;;;;;;;10.60;4.07;;;16.00;99.90;;;16.21;69.99;94773.31;5074173;28;20447;-69
2023/05/29 00:20:11;;;;;;;6.07;4.07;;;16.00;99.90;;;16.20;70.15;94771.66;5073431;28;20558;-53
2023/05/29 00:22:39;;;;;;;5.97;4.43;;;16.00;99.90;;;16.19;70.15;94767.34;5069112;28;20998;-54
2023/05/29 00:25:07;;;;;;;6.17;4.90;;;16.00;99.90;;;16.19;69.97;94764.69;5072866;28;20527;-68
2023/05/29 00:27:34;;;;;;;19.53;4.40;;;16.00;99.90;;;16.18;70.18;94766.53;5070016;28;20450;-54
2023/05/29 00:30:02;;;;;;;5.67;3.93;;;16.00;99.90;;;16.18;70.11;94761.22;5069051;28;20473;-56
2023/05/29 00:32:29;;;;;;;6.17;4.07;;;16.00;99.90;;;16.19;70.54;94770.00;5070649;28;20490;-67
2023/05/29 00:34:57;;;;;;;4.40;4.00;;;16.00;99.90;;;16.18;70.26;94761.22;5071564;28;20481;-54
2023/05/29 00:37:25;;;;;;;6.00;3.93;;;16.00;99.90;;;16.21;70.60;94757.41;5065384;28;20450;-68
2023/05/29 00:39:52;;;;;;;7.90;4.20;;;16.00;99.90;;;16.21;70.56;94765.38;5070833;28;20473;-54
2023/05/29 00:42:20;;;;;;;4.50;3.70;;;16.00;99.90;;;16.22;70.48;94761.69;5071980;28;20922;-68
2023/05/29 00:44:47;;;;;;;6.17;3.70;;;16.00;99.90;;;16.21;70.54;94755.56;5068152;28;20474;-53
2023/05/29 00:47:14;;;;;;;4.20;3.47;;;16.00;99.90;;;16.20;70.37;94769.00;5073389;28;21114;-55
2023/05/29 00:49:41;;;;;;;5.13;4.23;;;16.00;99.90;;;16.18;70.41;94760.41;5076056;28;20537;-55
2023/05/29 00:52:09;;;;;;;4.80;3.30;;;16.00;99.90;;;16.16;70.40;94762.41;5071736;28;20507;-54
2023/05/29 00:54:37;;;;;;;3.77;3.57;;;16.00;99.90;;;16.12;70.58;94762.75;5072946;28;20505;-53
2023/05/29 00:57:05;;;;;;;5.33;3.60;;;15.90;99.90;;;16.09;70.38;94752.47;5070145;28;20883;-54
2023/05/29 00:59:33;;;;;;;10.57;3.80;;;15.90;99.90;;;16.06;70.53;94758.16;5069942;28;20478;-53
2023/05/29 01:02:02;;;;;;;3.70;3.40;;;15.90;99.90;;;16.03;70.47;94750.53;5069154;28;20512;-55
2023/05/29 01:04:29;;;;;;;7.33;3.93;;;15.80;99.90;;;16.01;70.73;94744.59;5073780;28;20485;-53
2023/05/29 01:06:57;;;;;;;5.67;4.30;;;15.80;99.90;;;15.98;70.57;94750.25;5073340;28;20587;-67
2023/05/29 01:09:24;;;;;;;8.23;5.00;;;15.80;99.90;;;15.96;70.94;94744.31;5075546;28;20478;-53
2023/05/29 01:11:58;;;;;;;4.90;4.27;;;15.80;99.90;;;15.94;70.99;94752.44;5068020;28;20466;-56
2023/05/29 01:14:37;;;;;;;4.70;3.90;;;15.80;99.90;;;15.92;70.99;94746.47;5078444;28;20488;-67
2023/05/29 01:17:09;;;;;;;5.00;4.23;;;15.70;99.90;;;15.89;71.04;94752.13;5076707;28;20454;-67
2023/05/29 01:20:05;;;;;;;4.23;3.53;;;15.70;99.90;;;15.88;71.12;94750.50;5073065;28;21103;-68
2023/05/29 01:22:44;;;;;;;4.77;4.37;;;15.70;99.90;;;15.86;70.93;94749.81;5076538;28;20457;-56
2023/05/29 01:25:17;;;;;;;6.37;4.87;;;15.70;99.90;;;15.85;70.91;94757.94;5076620;28;20466;-67
2023/05/29 01:27:47;;;;;;;14.90;4.07;;;15.60;99.90;;;15.83;71.18;94767.91;5071745;28;20446;-68
2023/05/29 01:30:14;;;;;;;8.40;4.73;;;15.60;99.90;;;15.79;70.94;94769.28;5070241;28;20475;-67
2023/05/29 01:32:41;;;;;;;5.70;3.93;;;15.60;99.90;;;15.74;71.02;94773.25;5071649;28;20943;-68
2023/05/29 01:35:09;;;;;;;5.87;4.93;;;15.60;99.90;;;15.72;71.37;94766.47;5073264;28;20531;-67
2023/05/29 01:37:37;;;;;;;9.37;4.40;;;15.50;99.90;;;15.70;71.48;94763.97;5072143;28;20512;-55
2023/05/29 01:40:05;;;;;;;13.00;4.57;;;15.50;99.90;;;15.70;71.94;94763.97;5073561;28;20486;-67
2023/05/29 01:42:32;;;;;;;5.60;4.77;;;15.50;99.90;;;15.70;71.52;94761.31;5067570;28;20451;-68
2023/05/29 01:45:03;;;;;;;4.17;3.77;;;15.50;99.90;;;15.70;71.72;94758.69;5074882;28;20476;-55
2023/05/29 01:47:31;;;;;;;4.33;3.87;;;15.50;99.90;;;15.71;71.71;94749.72;5076842;28;20495;-68
2023/05/29 01:49:58;;;;;;;4.67;4.23;;;15.50;99.90;;;15.70;71.73;94748.06;5075707;28;20553;-54
2023/05/29 01:52:25;;;;;;;4.60;4.20;;;15.50;99.90;;;15.74;71.90;94749.38;5074286;28;20951;-54
2023/05/29 01:54:52;;;;;;;6.37;5.17;;;15.50;99.90;;;15.76;72.15;94755.31;5073302;28;20482;-53
2023/05/29 01:57:20;;;;;;;6.30;4.30;;;15.60;99.90;;;15.78;71.75;94749.88;5072422;28;20513;-67
2023/05/29 01:59:47;;;;;;;5.50;5.00;;;15.60;99.90;;;15.78;71.64;94747.22;5069893;28;20478;-66
2023/05/29 02:02:16;;;;;;;7.63;5.27;;;15.60;99.90;;;15.79;71.88;94745.41;5070402;28;20841;-55
2023/05/29 02:04:43;;;;;;;9.33;5.03;;;15.60;99.90;;;15.80;71.89;94749.69;5076706;28;20889;-67
2023/05/29 02:07:12;;;;;;;13.23;4.60;;;15.60;99.90;;;15.81;72.27;94752.19;5071591;28;20458;-55
2023/05/29 02:09:39;;;;;;;5.10;4.70;;;15.60;99.90;;;15.83;71.85;94749.34;5074828;28;20790;-66
2023/05/29 02:12:07;;;;;;;5.00;4.60;;;15.60;99.90;;;15.84;72.19;94745.72;5068537;28;20454;-67
2023/05/29 02:14:34;;;;;;;6.93;4.93;;;15.60;99.90;;;15.86;71.83;94743.69;5071504;28;20517;-56
2023/05/29 02:17:02;;;;;;;4.03;3.73;;;15.60;99.90;;;15.87;71.85;94748.00;5075082;28;20466;-67
2023/05/29 02:19:31;;;;;;;6.33;4.43;;;15.60;99.90;;;15.89;71.80;94740.69;5071470;28;20475;-66
2023/05/29 02:21:58;;;;;;;13.00;4.47;;;15.70;99.90;;;15.90;71.65;94742.34;5071427;28;20456;-67
2023/05/29 02:24:25;;;;;;;7.50;4.60;;;15.70;99.90;;;15.89;71.64;94736.22;5072407;28;20466;-67
2023/05/29 02:26:53;;;;;;;6.47;4.00;;;15.70;99.90;;;15.90;71.69;94737.06;5074241;28;20450;-56
2023/05/29 02:29:20;;;;;;;4.80;4.40;;;15.70;99.90;;;15.88;71.67;94745.19;5078594;28;20486;-68
2023/05/29 02:31:47;;;;;;;4.70;3.77;;;15.70;99.90;;;15.88;71.66;94742.53;5068907;28;20450;-66
2023/05/29 02:34:15;;;;;;;4.80;4.40;;;15.70;99.90;;;15.87;71.62;94750.66;5076735;28;20504;-67
2023/05/29 02:36:44;;;;;;;9.53;4.80;;;15.70;99.90;;;15.85;71.45;94744.69;5069691;28;20459;-66
2023/05/29 02:39:12;;;;;;;5.33;4.07;;;15.60;99.90;;;15.83;71.70;94752.81;5074988;28;20481;-68
2023/05/29 02:41:39;;;;;;;6.63;5.13;;;15.60;99.90;;;15.82;71.59;94753.84;5074199;28;20834;-68
2023/05/29 02:44:07;;;;;;;10.27;5.13;;;15.60;99.90;;;15.79;71.58;94756.03;5076116;28;20822;-68
2023/05/29 02:46:34;;;;;;;5.70;4.80;;;15.60;99.90;;;15.73;71.71;94750.38;5073369;28;20454;-68
2023/05/29 02:49:01;;;;;;;8.70;6.20;;;15.60;99.90;;;15.67;71.87;94753.72;5068684;28;21008;-68
2023/05/29 02:51:29;;;;;;;9.63;5.67;;;15.50;99.90;;;15.64;72.28;94758.56;5067093;28;20554;-53
2023/05/29 02:53:58;;;;;;;7.60;5.30;;;15.40;99.90;;;15.62;72.17;94745.47;5066821;28;21034;-55
2023/05/29 02:56:25;;;;;;;11.30;4.97;;;15.40;99.90;;;15.63;72.19;94751.59;5071364;28;20446;-54
2023/05/29 02:58:52;;;;;;;12.00;5.63;;;15.40;99.90;;;15.62;72.33;94749.97;5072960;28;20487;-58
2023/05/29 03:01:20;;;;;;;12.10;4.70;;;15.40;99.90;;;15.62;72.00;94748.13;5069305;28;20458;-68
2023/05/29 03:03:47;;;;;;;6.57;4.57;;;15.40;99.90;;;15.58;72.11;94757.41;5067439;28;20477;-54
2023/05/29 03:06:16;;;;;;;13.33;5.20;;;15.40;99.90;;;15.56;72.31;94757.59;5071874;28;20824;-55
2023/05/29 03:08:44;;;;;;;5.60;5.10;;;15.40;99.90;;;15.59;72.37;94751.13;5074247;28;20463;-55
2023/05/29 03:11:15;;;;;;;7.83;5.00;;;15.40;99.90;;;15.63;72.64;94751.59;5076459;28;20462;-54
2023/05/29 03:13:42;;;;;;;19.43;5.47;;;15.40;99.90;;;15.67;72.48;94743.13;5074559;28;20879;-55
2023/05/29 03:16:09;;;;;;;8.10;5.80;;;15.50;99.90;;;15.70;72.45;94747.25;5074284;28;20532;-68
2023/05/29 03:18:37;;;;;;;19.90;5.90;;;15.50;99.90;;;15.71;72.26;94754.22;5071769;28;20475;-67
2023/05/29 03:21:04;;;;;;;5.80;5.30;;;15.50;99.90;;;15.71;72.42;94755.03;5069103;28;20866;-57
2023/05/29 03:23:31;;;;;;;11.13;6.30;;;15.50;99.90;;;15.71;72.51;94755.03;5072664;28;20528;-55
2023/05/29 03:25:58;;;;;;;9.20;5.50;;;15.50;99.90;;;15.73;72.47;94747.72;5070902;28;20550;-67
2023/05/29 03:28:27;;;;;;;9.03;5.50;;;15.50;99.90;;;15.77;72.39;94751.72;5073253;28;20475;-55
2023/05/29 03:30:54;;;;;;;10.80;5.73;;;15.50;99.90;;;15.79;72.36;94753.38;5071653;28;20462;-54
2023/05/29 03:33:22;;;;;;;15.37;5.70;;;15.60;99.90;;;15.80;72.39;94760.31;5068133;28;20486;-56
2023/05/29 03:35:49;;;;;;;6.57;4.97;;;15.60;99.90;;;15.80;72.42;94755.84;5075426;28;20989;-66
2023/05/29 03:38:16;;;;;;;10.20;4.97;;;15.60;99.90;;;15.82;72.38;94760.94;5071968;28;20458;-66
2023/05/29 03:40:43;;;;;;;8.73;4.57;;;15.60;99.90;;;15.83;72.18;94779.34;5076242;28;20853;-67
2023/05/29 03:43:11;;;;;;;6.97;5.30;;;15.60;99.90;;;15.85;72.16;94777.38;5076477;28;20450;-55
2023/05/29 03:45:40;;;;;;;8.73;6.10;;;15.60;99.90;;;15.86;72.65;94779.00;5072627;28;20450;-52
2023/05/29 03:48:07;;;;;;;15.63;6.50;;;15.60;99.90;;;15.90;72.46;94776.84;5076991;28;21000;-56
2023/05/29 03:50:34;;;;;;;33.47;6.33;;;15.70;99.90;;;15.93;72.42;94779.16;5075607;28;20536;-64
2023/05/29 03:53:01;;;;;;;11.03;4.63;;;15.70;99.90;;;15.97;72.69;94784.91;5071423;28;20523;-65
2023/05/29 03:55:29;;;;;;;8.17;5.57;;;15.70;99.90;;;15.99;72.27;94780.25;5071867;28;20489;-64
2023/05/29 03:57:56;;;;;;;16.33;5.20;;;15.80;99.90;;;16.03;71.91;94787.69;5071119;28;20504;-56
2023/05/29 04:00:23;;;;;;;27.90;6.70;;;15.80;99.90;;;16.06;71.71;94795.28;5075564;28;20473;-58
2023/05/29 04:02:52;;;;;;;9.70;5.53;;;15.80;99.90;;;16.08;71.91;94795.13;5069239;28;20455;-56
2023/05/29 04:05:19;;;;;;;9.43;5.90;;;15.80;99.90;;;16.10;72.02;94801.91;5076930;28;20836;-54
2023/05/29 04:07:46;;;;;;;14.47;7.43;;;15.90;99.90;;;16.13;72.00;94804.22;5069915;28;20459;-56
2023/05/29 04:10:13;;;;;;;23.53;6.00;;;15.90;99.90;;;16.16;71.28;94805.69;5070799;28;20562;-53
2023/05/29 04:12:41;;;;;;;8.73;5.20;;;16.00;99.90;;;16.19;71.31;94812.47;5071559;28;20773;-63
2023/05/29 04:15:10;;;;;;;5.73;5.10;;;16.00;99.90;;;16.21;71.26;94810.47;5072471;28;20490;-57
2023/05/29 04:17:37;;;;;;;12.80;4.40;;;16.00;99.90;;;16.21;70.97;94811.28;5072897;28;20451;-63
2023/05/29 04:20:08;;;;;;;10.00;5.00;;;16.00;99.90;;;16.23;71.33;94811.13;5068669;28;20502;-65
2023/05/29 04:22:36;;;;;;;7.30;4.87;;;16.00;99.90;;;16.25;71.15;94814.41;5072977;28;21070;-65
2023/05/29 04:25:04;;;;;;;12.00;5.23;;;16.00;99.90;;;16.26;70.81;94810.75;5068455;28;20548;-63
2023/05/29 04:27:32;;;;;;;10.73;5.27;;;16.00;99.90;;;16.27;70.84;94807.94;5070603;28;20462;-55
2023/05/29 04:29:59;;;;;;;9.50;5.40;;;16.00;99.90;;;16.27;70.55;94804.47;5075035;28;20516;-55
2023/05/29 04:32:27;;;;;;;11.03;4.90;;;16.00;99.90;;;16.29;70.76;94803.25;5070487;28;20453;-64
2023/05/29 04:34:54;;;;;;;6.70;5.07;;;16.10;99.90;;;16.31;70.90;94808.41;5076758;28;20581;-64
2023/05/29 04:37:29;;;;;;;10.43;5.33;;;16.10;99.90;;;16.33;70.55;94809.06;5074580;28;20466;-55
2023/05/29 04:39:57;;;;;;;20.23;7.33;;;16.10;99.90;;;16.35;70.85;94804.41;5071664;28;21018;-64
2023/05/29 04:42:24;;;;;;;17.90;5.93;;;16.10;99.90;;;16.38;70.68;94809.34;5073978;28;20487;-55
2023/05/29 04:44:52;;;;;;;9.13;5.93;;;16.10;99.90;;;16.42;70.69;94817.78;5064250;28;20564;-63
2023/05/29 04:47:20;;;;;;;11.63;5.23;;;16.20;99.90;;;16.47;70.64;94818.91;5072413;28;20498;-55
2023/05/29 04:49:50;;;;;;;9.77;5.97;;;16.20;99.90;;;16.51;70.76;94813.25;5081544;28;20466;-65
2023/05/29 04:52:17;;;;;;;8.43;5.80;;;16.30;99.90;;;16.55;70.75;94819.84;5070809;28;20827;-64
2023/05/29 04:54:45;;;;;;;14.50;6.30;;;16.30;99.90;;;16.58;70.62;94822.16;5073194;28;21085;-64
2023/05/29 04:57:13;;;;;;;13.93;6.40;;;16.30;99.90;;;16.62;70.60;94826.09;5072581;28;20947;-56
2023/05/29 04:59:40;;;;;;;13.10;6.17;;;16.40;99.90;;;16.64;70.87;94824.09;5077965;28;21029;-57
2023/05/29 05:02:07;;;;;;;11.73;6.13;;;16.40;99.90;;;16.66;70.46;94824.75;5070923;28;20473;-54
2023/05/29 05:04:35;;;;;;;14.90;6.60;;;16.40;99.90;;;16.69;70.39;94832.34;5076896;28;20475;-57
2023/05/29 05:07:03;;;;;;;13.93;6.93;;;16.40;99.90;;;16.71;70.18;94835.66;5072891;28;20454;-58
2023/05/29 05:09:30;;;;;;;8.83;5.67;;;16.50;99.90;;;16.71;70.60;94843.63;5078082;28;20874;-67
2023/05/29 05:11:59;;;;;;;9.27;5.80;;;16.50;99.90;;;16.74;70.25;94842.44;5068531;28;20451;-65
2023/05/29 05:14:26;;;;;;;8.77;5.70;;;16.50;99.90;;;16.76;70.19;94845.72;5076347;28;20524;-67
2023/05/29 05:16:53;;;;;;;9.27;5.37;;;16.50;99.90;;;16.78;70.34;94857.84;5072103;28;20884;-66
2023/05/29 05:19:21;;;;;;;16.50;6.50;;;16.50;99.90;;;16.81;70.47;94857.47;5074742;28;20840;-67
2023/05/29 05:21:48;;;;;;;9.73;5.73;;;16.60;99.90;;;16.83;70.65;94860.78;5076274;28;20454;-67
2023/05/29 05:24:15;;;;;;;15.83;5.67;;;16.60;99.90;;;16.88;70.61;94864.78;5073064;28;20528;-67
2023/05/29 05:26:42;;;;;;;11.70;5.63;;;16.60;99.90;;;16.91;70.18;94859.09;5076088;28;20674;-65
2023/05/29 05:29:11;;;;;;;9.80;6.77;;;16.70;99.90;;;16.94;70.25;94851.59;5073334;28;20857;-67
2023/05/29 05:31:38;;;;;;;9.23;5.63;;;16.70;99.90;;;16.99;70.18;94861.69;5075438;28;20520;-55
2023/05/29 05:34:06;;;;;;;10.70;5.80;;;16.70;99.90;;;17.03;70.20;94857.66;5073928;28;20487;-55
2023/05/29 05:36:33;;;;;;;13.13;5.90;;;16.80;99.90;;;17.08;70.20;94862.44;5076841;28;20843;-55
2023/05/29 05:39:00;;;;;;;14.50;5.73;;;16.80;99.90;;;17.07;70.31;94851.00;5074994;28;20471;-55
2023/05/29 05:41:27;;;;;;;7.60;5.60;;;16.80;99.90;;;17.15;69.82;94858.88;5076135;28;20991;-55
2023/05/29 05:43:55;;;;;;;14.13;5.30;;;16.90;99.90;;;17.19;69.56;94860.16;5074452;28;21072;-66
2023/05/29 05:46:23;;;;;;;12.87;5.40;;;16.90;99.90;;;17.23;69.20;94865.09;5070909;28;20501;-66
2023/05/29 05:48:51;;;;;;;5.13;4.63;;;17.00;99.90;;;17.26;69.38;94865.59;5075202;28;20470;-54
2023/05/29 05:51:19;;;;;;;14.23;5.20;;;17.00;99.90;;;17.32;68.89;94866.69;5077159;28;20457;-69
2023/05/29 05:53:46;;;;;;;11.60;5.60;;;17.00;99.90;;;17.38;68.81;94863.28;5072073;28;21019;-55
2023/05/29 05:56:13;;;;;;;16.20;5.87;;;17.10;99.90;;;17.41;69.03;94857.63;5071092;28;21053;-54
2023/05/29 05:58:41;;;;;;;6.20;4.57;;;17.10;99.90;;;17.46;69.13;94862.38;5071300;28;20813;-66
2023/05/29 06:01:09;;;;;;;7.43;4.27;;;17.20;99.90;;;17.53;68.55;94861.47;5077102;28;20580;-68
2023/05/29 06:03:38;;;;;;;9.40;4.60;;;17.30;99.90;;;17.66;68.48;94866.16;5071497;28;20718;-55
2023/05/29 06:06:05;;;;;;;9.00;4.93;;;17.40;99.90;;;17.81;69.01;94860.81;5076328;28;20779;-56
2023/05/29 06:08:33;;;;;;;7.10;4.83;;;17.50;99.90;;;18.02;69.15;94861.94;5068855;28;20829;-67
2023/05/29 06:11:00;;;;;;;18.83;5.63;;;17.70;99.90;;;18.27;68.25;94857.94;5074580;28;20454;-55
2023/05/29 06:13:27;;;;;;;5.60;4.30;;;17.90;99.90;;;18.53;68.12;94855.72;5076148;28;20957;-55
2023/05/29 06:15:54;;;;;;;6.93;4.90;;;18.10;99.90;;;18.78;67.27;94859.69;5071615;28;20490;-55
2023/05/29 06:18:22;;;;;;;11.07;5.77;;;18.40;99.90;;;19.04;67.36;94858.31;5073292;28;20561;-64
2023/05/29 06:20:51;;;;;;;8.83;3.50;;;18.60;99.90;;;19.26;66.38;94861.75;5074996;28;20454;-54
2023/05/29 06:23:18;;;;;;;4.83;3.97;;;18.90;99.90;;;19.41;66.04;94867.00;5074824;28;21559;-55
2023/05/29 06:25:45;;;;;;;9.93;4.77;;;19.00;99.90;;;19.51;65.80;94864.78;5073302;28;20530;-67
2023/05/29 06:28:13;;;;;;;7.03;4.10;;;19.10;99.90;;;19.60;65.50;94870.81;5073967;28;20526;-67
2023/05/29 06:30:40;;;;;;;12.00;4.83;;;19.20;99.90;;;19.67;65.30;94874.34;5073058;28;20462;-56
2023/05/29 06:33:07;;;;;;;8.07;3.97;;;19.30;99.90;;;19.74;65.52;94873.56;5074233;28;20451;-65
2023/05/29 06:35:35;;;;;;;7.63;4.17;;;19.40;99.90;;;19.84;64.74;94868.72;5071985;28;20498;-55
2023/05/29 06:38:03;;;;;;;6.83;4.70;;;19.40;99.90;;;20.01;65.07;94870.03;5072038;28;20443;-65
2023/05/29 06:40:30;;;;;;;4.67;4.30;;;19.60;99.90;;;20.18;64.57;94870.50;5075902;28;20848;-55
2023/05/29 06:42:58;;;;;;;7.30;3.70;;;19.70;99.90;;;20.33;64.12;94873.03;5070964;28;20461;-54
2023/05/29 06:45:25;;;;;;;8.30;3.60;;;19.90;99.90;;;20.50;63.48;94868.16;5074338;28;20467;-55
2023/05/29 06:47:52;;;;;;;6.03;3.40;;;20.00;99.90;;;20.72;63.23;94866.16;5072161;28;20457;-66
2023/05/29 06:50:20;;;;;;;7.93;3.50;;;20.30;99.90;;;20.94;62.67;94869.50;5075084;28;20463;-68
2023/05/29 06:52:47;;;;;;;10.67;3.80;;;20.50;99.90;;;21.14;62.87;94879.38;5072696;28;20458;-68
2023/05/29 06:55:15;;;;;;;3.50;3.30;;;20.70;99.90;;;21.35;61.99;94880.19;5072824;28;20556;-56
2023/05/29 06:57:43;;;;;;;3.70;3.40;;;20.90;99.90;;;21.48;61.50;94864.94;5074037;28;20805;-67
2023/05/29 07:00:11;;;;;;;6.70;3.50;;;21.00;99.90;;;21.64;61.81;94868.25;5074247;28;20471;-67
2023/05/29 07:02:38;;;;;;;4.57;4.13;;;21.20;99.90;;;21.82;61.37;94863.06;5073115;28;20837;-56
2023/05/29 07:05:07;;;;;;;11.30;4.20;;;21.30;99.90;;;22.02;61.11;94864.88;5071526;28;20540;-54
2023/05/29 07:07:34;;;;;;;4.33;3.77;;;21.60;99.90;;;22.12;60.52;94865.25;5072944;28;20454;-54
2023/05/29 07:10:01;;;;;;;3.30;2.70;;;21.60;99.90;;;22.20;60.04;94862.34;5070175;28;20467;-55
2023/05/29 07:12:30;;;;;;;3.03;2.73;;;21.70;99.90;;;22.35;59.47;94863.94;5075101;28;20454;-66
2023/05/29 07:14:58;;;;;;;3.10;2.90;;;21.90;99.90;;;22.44;59.37;94862.66;5070301;28;20495;-56
2023/05/29 07:17:25;;;;;;;3.33;2.60;;;22.00;99.90;;;22.43;59.30;94866.38;5073891;28;20454;-55
2023/05/29 07:19:53;;;;;;;4.17;2.53;;;22.00;99.90;;;22.54;59.56;94868.41;5073791;28;20478;-56
2023/05/29 07:22:21;;;;;;;4.60;2.60;;;22.00;99.90;;;22.73;58.77;94871.19;5073801;28;20454;-55
2023/05/29 07:24:48;;;;;;;3.93;2.20;;;22.20;99.90;;;22.90;58.46;94866.94;5074123;28;20463;-67
2023/05/29 07:27:15;;;;;;;5.43;2.43;;;22.40;99.90;;;23.06;57.93;94865.56;5073490;28;21718;-66
2023/05/29 07:29:44;;;;;;;4.83;3.17;;;22.60;99.90;;;23.24;57.79;94861.38;5073867;28;20486;-67
2023/05/29 07:32:11;;;;;;;2.37;2.27;;;22.70;99.80;;;23.40;57.84;94857.31;5073237;28;20450;-66
2023/05/29 07:34:38;;;;;;;1.83;1.40;;;22.90;99.60;;;23.50;57.15;94864.84;5073157;28;20893;-54
2023/05/29 07:37:07;;;;;;;2.10;2.00;;;23.00;98.90;;;23.61;56.34;94862.28;5073247;28;20465;-66
2023/05/29 07:39:35;;;;;;;2.43;1.80;;;23.10;98.30;;;23.76;56.15;94859.22;5073166;28;20510;-54
2023/05/29 07:42:02;;;;;;;2.17;2.00;;;23.20;98.00;;;23.96;55.36;94858.22;5070934;28;20453;-56
2023/05/29 07:44:29;;;;;;;2.27;2.07;;;23.40;97.80;;;24.10;55.11;94859.69;5070810;28;20471;-55
2023/05/29 07:46:58;;;;;;;3.97;2.30;;;23.60;97.60;;;24.13;54.88;94856.56;5076368;28;20453;-65
2023/05/29 07:49:25;;;;;;;1.67;1.57;;;23.70;97.00;;;24.11;54.65;94844.41;5075052;28;20457;-67
2023/05/29 07:51:52;;;;;;;3.10;2.33;;;23.70;96.80;;;24.07;54.32;94849.41;5074352;28;20453;-67
2023/05/29 07:54:20;;;;;;;5.13;2.50;;;23.60;96.50;;;24.05;54.21;94858.75;5072245;28;20503;-52
2023/05/29 07:56:48;;;;;;;3.40;1.77;;;23.60;96.20;;;24.01;53.06;94852.16;5073216;28;20516;-67
2023/05/29 07:59:16;;;;;;;2.10;2.00;;;23.50;95.00;;;23.89;51.82;94852.09;5070767;28;20526;-55
2023/05/29 08:01:44;;;;;;;1.70;1.60;;;23.50;94.10;;;23.79;53.26;94855.25;5071931;28;20448;-54
2023/05/29 08:04:12;;;;;;;5.47;1.70;;;23.40;95.00;;;23.78;53.96;94851.78;5072119;28;20473;-56
2023/05/29 08:06:42;;;;;;;7.50;2.20;;;23.40;95.30;;;23.76;53.67;94853.03;5071704;28;20465;-67
2023/05/29 08:09:09;;;;;;;2.20;1.87;;;23.30;95.20;;;23.75;53.51;94852.22;5066634;28;20991;-54
2023/05/29 08:11:37;;;;;;;2.57;1.50;;;23.30;95.30;;;23.71;53.92;94856.38;5070929;28;20518;-66
2023/05/29 08:14:04;;;;;;;1.90;1.80;;;23.30;95.20;;;23.68;53.46;94853.31;5077681;28;21005;-66
2023/05/29 08:16:31;;;;;;;5.73;2.40;;;23.20;95.10;;;23.67;52.88;94857.88;5074511;28;20490;-67
2023/05/29 08:18:59;;;;;;;1.93;1.53;;;23.20;94.40;;;23.59;52.99;94853.63;5077336;28;20531;-53
2023/05/29 08:21:27;;;;;;;2.10;2.00;;;23.20;94.60;;;23.51;53.16;94853.88;5075470;28;20462;-55
2023/05/29 08:23:55;;;;;;;8.30;1.83;;;23.10;94.60;;;23.45;53.32;94852.91;5081544;28;20477;-56
2023/05/29 08:26:22;;;;;;;2.13;1.90;;;23.10;94.70;;;23.49;53.36;94858.66;5077453;28;20450;-54
2023/05/29 08:28:49;;;;;;;2.37;2.27;;;23.10;94.50;;;23.54;53.34;94853.44;5081255;28;20465;-68
2023/05/29 08:31:17;;;;;;;3.50;2.07;;;23.10;94.90;;;23.61;53.98;94861.47;5076841;28;20478;-67
2023/05/29 08:33:44;;;;;;;2.23;2.07;;;23.20;94.80;;;23.65;53.24;94859.13;5075772;28;20855;-55
2023/05/29 08:36:11;;;;;;;2.47;2.17;;;23.20;94.30;;;23.73;53.92;94858.84;5076353;28;20504;-54
2023/05/29 08:38:40;;;;;;;2.73;2.00;;;23.30;94.80;;;23.83;53.32;94861.84;5074747;28;20474;-55
2023/05/29 08:41:07;;;;;;;2.83;2.63;;;23.40;94.40;;;23.79;50.57;94855.25;5075229;28;20527;-55
2023/05/29 08:43:35;;;;;;;4.40;2.00;;;23.40;92.00;;;23.71;51.24;94867.13;5080856;28;20482;-66
2023/05/29 08:46:03;;;;;;;3.30;2.30;;;23.30;92.60;;;23.66;52.08;94853.53;5076595;28;20454;-53
2023/05/29 08:48:31;;;;;;;2.90;2.10;;;23.30;93.10;;;23.66;52.04;94848.19;5079702;28;20530;-54
2023/05/29 08:50:59;;;;;;;7.63;2.00;;;23.30;93.20;;;23.66;52.21;94852.75;5075051;28;20959;-67
2023/05/29 08:53:27;;;;;;;2.90;2.63;;;23.30;93.30;;;23.60;50.77;94841.81;5073207;28;20533;-55
2023/05/29 08:55:57;;;;;;;4.40;3.10;;;23.20;91.50;;;23.48;49.23;94834.72;5072883;28;20493;-56
2023/05/29 08:58:24;;;;;;;2.90;2.70;;;23.10;90.90;;;23.36;51.28;94831.94;5073084;28;20538;-67
2023/05/29 09:00:51;;;;;;;3.20;3.00;;;23.00;91.90;;;23.27;51.60;94839.47;5079163;28;20489;-66
2023/05/29 09:03:20;;;;;;;2.57;2.40;;;22.90;92.20;;;23.22;51.81;94841.97;5076566;28;20454;-55
2023/05/29 09:05:48;;;;;;;2.93;2.30;;;22.80;91.90;;;23.24;51.59;94834.53;5072427;28;20478;-55
2023/05/29 09:08:16;;;;;;;3.87;2.70;;;22.80;92.10;;;23.33;51.93;94835.91;5070165;28;20997;-66
2023/05/29 09:10:43;;;;;;;3.23;2.33;;;22.90;92.10;;;23.52;51.35;94830.56;5073325;28;20503;-66
2023/05/29 09:13:13;;;;;;;2.33;2.20;;;23.00;92.40;;;23.75;50.67;94819.16;5076525;28;20451;-67
2023/05/29 09:15:42;;;;;;;3.10;2.83;;;23.30;91.80;;;24.00;51.23;94824.50;5075989;28;20489;-66
2023/05/29 09:18:10;;;;;;;3.37;3.17;;;23.50;91.90;;;24.26;48.61;94823.34;5074378;28;20450;-56
2023/05/29 09:20:37;;;;;;;3.47;3.27;;;23.80;90.10;;;24.44;49.14;94824.34;5076907;28;20469;-66
2023/05/29 09:23:06;;;;;;;4.07;3.00;;;24.00;90.00;;;24.62;48.88;94824.34;5076412;28;20454;-67
2023/05/29 09:25:35;;;;;;;4.00;2.57;;;24.10;89.30;;;24.80;47.18;94819.94;5078746;28;20502;-58
2023/05/29 09:28:05;;;;;;;2.67;2.47;;;24.40;85.70;;;24.90;46.70;94808.63;5071459;28;20451;-57
2023/05/29 09:30:36;;;;;;;2.53;2.40;;;24.40;84.70;;;24.87;46.87;94809.91;5078772;28;20450;-55
2023/05/29 09:33:04;;;;;;;6.70;2.80;;;24.50;85.20;;;24.85;47.93;94803.94;5075321;28;20482;-54
2023/05/29 09:35:36;;;;;;;3.43;2.37;;;24.50;86.70;;;24.83;47.76;94798.78;5078367;28;20492;-67
2023/05/29 09:38:03;;;;;;;3.00;2.80;;;24.40;86.10;;;24.87;46.50;94799.94;5069348;28;20500;-56
2023/05/29 09:40:32;;;;;;;3.43;2.20;;;24.40;83.30;;;24.95;46.56;94790.72;5075456;28;20511;-59
2023/05/29 09:43:11;;;;;;;7.27;2.97;;;24.50;84.50;;;25.05;46.64;94790.97;5073239;28;20454;-66
2023/05/29 09:45:40;;;;;;;3.30;2.80;;;24.60;84.60;;;25.17;44.79;94788.28;5074892;28;20472;-53
2023/05/29 09:48:08;;;;;;;2.53;2.33;;;24.70;80.50;;;25.24;46.36;94782.81;5073621;28;20938;-56
2023/05/29 09:50:36;;;;;;;5.80;3.40;;;24.80;82.30;;;25.28;45.99;94773.19;5080099;28;20446;-66
2023/05/29 09:53:03;;;;;;;3.53;3.10;;;24.80;82.00;;;25.34;45.03;94784.94;5078082;28;20437;-67
2023/05/29 09:55:33;;;;;;;2.90;2.70;;;24.90;79.60;;;25.37;44.12;94785.28;5073274;28;20544;-67
2023/05/29 09:58:00;;;;;;;2.27;2.10;;;24.90;78.50;;;25.39;45.30;94780.50;5078160;28;20449;-56
2023/05/29 10:00:28;;;;;;;4.50;2.77;;;25.00;80.80;;;25.41;44.58;94782.97;5071005;28;20524;-56
2023/05/29 10:02:57;;;;;;;2.73;2.53;;;25.00;77.50;;;25.37;44.47;94779.91;5068406;28;20460;-56
2023/05/29 10:05:24;;;;;;;3.53;3.00;;;25.00;77.70;;;25.30;45.11;94776.53;5071101;28;20552;-57
2023/05/29 10:07:52;;;;;;;2.90;2.70;;;24.90;77.70;;;25.31;45.55;94777.31;5076083;28;20504;-66
2023/05/29 10:10:20;;;;;;;2.83;2.63;;;24.90;79.30;;;25.43;45.42;94771.94;5079039;28;20469;-66
2023/05/29 10:12:50;;;;;;;3.17;2.87;;;25.00;79.50;;;25.45;43.28;94773.34;5071543;28;20910;-55
2023/05/29 10:15:18;;;;;;;2.80;2.60;;;25.00;75.30;;;25.40;44.94;94770.53;5073526;28;20567;-66
2023/05/29 10:17:58;;;;;;;4.10;3.80;;;25.00;77.80;;;25.43;44.64;94780.03;5076611;28;20441;-54
2023/05/29 10:20:25;;;;;;;5.63;3.13;;;25.00;78.60;;;25.47;43.99;94768.56;5079045;28;20854;-55